sensor_id;sensor_type;location;lat;lon;timestamp;P1;durP1;ratioP1;P2;durP2;ratioP2
10894;SDS011;5500;49.886;8.074;2022-12-18T00:02:26;53.17;;;23.70;;
10894;SDS011;5500;49.886;8.074;2022-12-18T00:04:54;76.63;;;24.97;;
10894;SDS011;5500;49.886;8.074;2022-12-18T00:07:22;58.70;;;25.53;;
10894;SDS011;5500;49.886;8.074;2022-12-18T00:09:50;48.70;;;24.17;;
10894;SDS011;5500;49.886;8.074;2022-12-18T00:12:17;78.40;;;25.47;;
10894;SDS011;5500;49.886;8.074;2022-12-18T00:14:46;58.50;;;24.83;;
10894;SDS011;5500;49.886;8.074;2022-12-18T00:17:14;60.60;;;25.63;;
10894;SDS011;5500;49.886;8.074;2022-12-18T00:19:42;86.57;;;28.07;;
10894;SDS011;5500;49.886;8.074;2022-12-18T00:22:10;67.13;;;24.50;;
10894;SDS011;5500;49.886;8.074;2022-12-18T00:24:37;54.50;;;25.13;;
10894;SDS011;5500;49.886;8.074;2022-12-18T00:27:05;72.70;;;26.23;;
10894;SDS011;5500;49.886;8.074;2022-12-18T00:29:33;156.47;;;29.20;;
10894;SDS011;5500;49.886;8.074;2022-12-18T00:32:03;127.57;;;28.73;;
10894;SDS011;5500;49.886;8.074;2022-12-18T00:34:30;61.53;;;25.60;;
10894;SDS011;5500;49.886;8.074;2022-12-18T00:36:58;116.63;;;28.07;;
10894;SDS011;5500;49.886;8.074;2022-12-18T00:39:26;100.33;;;27.63;;
10894;SDS011;5500;49.886;8.074;2022-12-18T00:41:54;57.80;;;26.03;;
10894;SDS011;5500;49.886;8.074;2022-12-18T00:44:39;59.13;;;25.90;;
10894;SDS011;5500;49.886;8.074;2022-12-18T00:47:08;56.90;;;26.30;;
10894;SDS011;5500;49.886;8.074;2022-12-18T00:49:35;63.47;;;26.63;;
10894;SDS011;5500;49.886;8.074;2022-12-18T00:52:03;61.73;;;28.30;;
10894;SDS011;5500;49.886;8.074;2022-12-18T00:54:31;61.17;;;27.23;;
10894;SDS011;5500;49.886;8.074;2022-12-18T00:56:59;53.77;;;25.50;;
10894;SDS011;5500;49.886;8.074;2022-12-18T00:59:27;49.77;;;24.77;;
10894;SDS011;5500;49.886;8.074;2022-12-18T01:01:54;51.87;;;27.10;;
10894;SDS011;5500;49.886;8.074;2022-12-18T01:04:23;55.87;;;25.83;;
10894;SDS011;5500;49.886;8.074;2022-12-18T01:06:51;62.97;;;26.27;;
10894;SDS011;5500;49.886;8.074;2022-12-18T01:09:19;60.17;;;26.87;;
10894;SDS011;5500;49.886;8.074;2022-12-18T01:11:46;56.50;;;26.00;;
10894;SDS011;5500;49.886;8.074;2022-12-18T01:14:14;59.93;;;26.27;;
10894;SDS011;5500;49.886;8.074;2022-12-18T01:16:42;57.77;;;25.90;;
10894;SDS011;5500;49.886;8.074;2022-12-18T01:19:10;54.30;;;26.03;;
10894;SDS011;5500;49.886;8.074;2022-12-18T01:21:39;61.80;;;24.87;;
10894;SDS011;5500;49.886;8.074;2022-12-18T01:24:07;56.47;;;25.43;;
10894;SDS011;5500;49.886;8.074;2022-12-18T01:26:35;54.80;;;24.90;;
10894;SDS011;5500;49.886;8.074;2022-12-18T01:29:02;53.70;;;24.07;;
10894;SDS011;5500;49.886;8.074;2022-12-18T01:31:31;59.83;;;26.77;;
10894;SDS011;5500;49.886;8.074;2022-12-18T01:34:00;53.10;;;23.43;;
10894;SDS011;5500;49.886;8.074;2022-12-18T01:36:30;52.47;;;24.87;;
10894;SDS011;5500;49.886;8.074;2022-12-18T01:39:00;59.40;;;22.87;;
10894;SDS011;5500;49.886;8.074;2022-12-18T01:41:29;54.97;;;24.53;;
10894;SDS011;5500;49.886;8.074;2022-12-18T01:47:23;68.40;;;25.87;;
10894;SDS011;5500;49.886;8.074;2022-12-18T01:49:54;76.80;;;28.20;;
10894;SDS011;5500;49.886;8.074;2022-12-18T01:52:22;85.10;;;25.03;;
10894;SDS011;5500;49.886;8.074;2022-12-18T01:54:53;54.57;;;23.13;;
10894;SDS011;5500;49.886;8.074;2022-12-18T01:57:22;58.27;;;24.80;;
10894;SDS011;5500;49.886;8.074;2022-12-18T01:59:52;54.97;;;24.03;;
10894;SDS011;5500;49.886;8.074;2022-12-18T02:02:20;56.63;;;24.70;;
10894;SDS011;5500;49.886;8.074;2022-12-18T02:04:48;70.13;;;25.23;;
10894;SDS011;5500;49.886;8.074;2022-12-18T02:07:17;57.60;;;24.77;;
10894;SDS011;5500;49.886;8.074;2022-12-18T02:09:50;55.93;;;24.83;;
10894;SDS011;5500;49.886;8.074;2022-12-18T02:12:25;52.43;;;24.60;;
10894;SDS011;5500;49.886;8.074;2022-12-18T02:14:59;65.77;;;22.83;;
10894;SDS011;5500;49.886;8.074;2022-12-18T02:17:29;53.67;;;23.60;;
10894;SDS011;5500;49.886;8.074;2022-12-18T02:20:02;59.00;;;24.97;;
10894;SDS011;5500;49.886;8.074;2022-12-18T02:22:35;65.33;;;24.03;;
10894;SDS011;5500;49.886;8.074;2022-12-18T02:25:12;53.33;;;24.23;;
10894;SDS011;5500;49.886;8.074;2022-12-18T02:27:45;44.13;;;21.57;;
10894;SDS011;5500;49.886;8.074;2022-12-18T02:30:14;43.57;;;22.57;;
10894;SDS011;5500;49.886;8.074;2022-12-18T02:32:46;48.07;;;23.43;;
10894;SDS011;5500;49.886;8.074;2022-12-18T02:35:17;46.60;;;22.80;;
10894;SDS011;5500;49.886;8.074;2022-12-18T02:37:50;54.30;;;24.37;;
10894;SDS011;5500;49.886;8.074;2022-12-18T02:40:21;50.93;;;22.17;;
10894;SDS011;5500;49.886;8.074;2022-12-18T02:42:52;44.23;;;22.30;;
10894;SDS011;5500;49.886;8.074;2022-12-18T02:45:20;50.70;;;24.00;;
10894;SDS011;5500;49.886;8.074;2022-12-18T02:47:48;44.43;;;22.03;;
10894;SDS011;5500;49.886;8.074;2022-12-18T02:50:18;42.93;;;22.13;;
10894;SDS011;5500;49.886;8.074;2022-12-18T02:52:49;47.27;;;22.57;;
10894;SDS011;5500;49.886;8.074;2022-12-18T02:55:27;43.17;;;20.77;;
10894;SDS011;5500;49.886;8.074;2022-12-18T02:58:01;40.57;;;21.50;;
10894;SDS011;5500;49.886;8.074;2022-12-18T03:00:31;37.83;;;19.57;;
10894;SDS011;5500;49.886;8.074;2022-12-18T03:03:02;40.83;;;19.93;;
10894;SDS011;5500;49.886;8.074;2022-12-18T03:05:35;36.30;;;18.87;;
10894;SDS011;5500;49.886;8.074;2022-12-18T03:08:06;47.87;;;23.47;;
10894;SDS011;5500;49.886;8.074;2022-12-18T03:10:35;39.63;;;19.93;;
10894;SDS011;5500;49.886;8.074;2022-12-18T03:13:08;43.27;;;22.03;;
10894;SDS011;5500;49.886;8.074;2022-12-18T03:15:38;38.03;;;19.50;;
10894;SDS011;5500;49.886;8.074;2022-12-18T03:18:10;39.40;;;19.40;;
10894;SDS011;5500;49.886;8.074;2022-12-18T03:20:40;38.97;;;19.90;;
10894;SDS011;5500;49.886;8.074;2022-12-18T03:23:10;42.30;;;20.67;;
10894;SDS011;5500;49.886;8.074;2022-12-18T03:25:41;42.67;;;19.03;;
10894;SDS011;5500;49.886;8.074;2022-12-18T03:28:12;39.10;;;20.30;;
10894;SDS011;5500;49.886;8.074;2022-12-18T03:30:42;36.23;;;20.30;;
10894;SDS011;5500;49.886;8.074;2022-12-18T03:33:12;45.60;;;21.10;;
10894;SDS011;5500;49.886;8.074;2022-12-18T03:35:45;40.97;;;19.97;;
10894;SDS011;5500;49.886;8.074;2022-12-18T03:38:13;41.00;;;21.30;;
10894;SDS011;5500;49.886;8.074;2022-12-18T03:40:43;42.63;;;21.47;;
10894;SDS011;5500;49.886;8.074;2022-12-18T03:43:18;38.90;;;19.87;;
10894;SDS011;5500;49.886;8.074;2022-12-18T03:45:49;41.10;;;20.10;;
10894;SDS011;5500;49.886;8.074;2022-12-18T03:48:20;38.63;;;20.67;;
10894;SDS011;5500;49.886;8.074;2022-12-18T03:50:54;36.03;;;19.23;;
10894;SDS011;5500;49.886;8.074;2022-12-18T03:53:25;37.97;;;19.20;;
10894;SDS011;5500;49.886;8.074;2022-12-18T03:55:59;37.90;;;19.23;;
10894;SDS011;5500;49.886;8.074;2022-12-18T03:58:29;36.40;;;17.40;;
10894;SDS011;5500;49.886;8.074;2022-12-18T04:01:00;39.60;;;19.07;;
10894;SDS011;5500;49.886;8.074;2022-12-18T04:03:30;37.30;;;18.83;;
10894;SDS011;5500;49.886;8.074;2022-12-18T04:05:59;34.83;;;19.57;;
10894;SDS011;5500;49.886;8.074;2022-12-18T04:08:28;37.60;;;18.97;;
10894;SDS011;5500;49.886;8.074;2022-12-18T04:10:56;31.17;;;18.00;;
10894;SDS011;5500;49.886;8.074;2022-12-18T04:13:24;35.10;;;17.63;;
10894;SDS011;5500;49.886;8.074;2022-12-18T04:15:53;30.80;;;17.83;;
10894;SDS011;5500;49.886;8.074;2022-12-18T04:18:21;44.53;;;18.40;;
10894;SDS011;5500;49.886;8.074;2022-12-18T04:20:48;37.70;;;18.50;;
10894;SDS011;5500;49.886;8.074;2022-12-18T04:23:16;37.90;;;17.93;;
10894;SDS011;5500;49.886;8.074;2022-12-18T04:25:44;31.27;;;18.03;;
10894;SDS011;5500;49.886;8.074;2022-12-18T04:28:12;38.00;;;18.70;;
10894;SDS011;5500;49.886;8.074;2022-12-18T04:30:40;38.87;;;19.23;;
10894;SDS011;5500;49.886;8.074;2022-12-18T04:33:09;39.00;;;18.20;;
10894;SDS011;5500;49.886;8.074;2022-12-18T04:35:38;37.93;;;19.20;;
10894;SDS011;5500;49.886;8.074;2022-12-18T04:38:05;36.67;;;18.30;;
10894;SDS011;5500;49.886;8.074;2022-12-18T04:40:34;40.43;;;19.37;;
10894;SDS011;5500;49.886;8.074;2022-12-18T04:43:02;34.60;;;18.70;;
10894;SDS011;5500;49.886;8.074;2022-12-18T04:45:30;40.00;;;19.50;;
10894;SDS011;5500;49.886;8.074;2022-12-18T04:47:57;41.60;;;19.50;;
10894;SDS011;5500;49.886;8.074;2022-12-18T04:50:27;35.10;;;19.97;;
10894;SDS011;5500;49.886;8.074;2022-12-18T04:52:54;39.53;;;20.50;;
10894;SDS011;5500;49.886;8.074;2022-12-18T04:55:22;36.60;;;18.03;;
10894;SDS011;5500;49.886;8.074;2022-12-18T04:57:50;38.03;;;19.63;;
10894;SDS011;5500;49.886;8.074;2022-12-18T05:00:18;40.73;;;18.80;;
10894;SDS011;5500;49.886;8.074;2022-12-18T05:02:45;36.83;;;20.07;;
10894;SDS011;5500;49.886;8.074;2022-12-18T05:05:13;43.37;;;19.73;;
10894;SDS011;5500;49.886;8.074;2022-12-18T05:07:42;40.63;;;19.33;;
10894;SDS011;5500;49.886;8.074;2022-12-18T05:10:11;38.77;;;22.13;;
10894;SDS011;5500;49.886;8.074;2022-12-18T05:12:38;38.60;;;20.13;;
10894;SDS011;5500;49.886;8.074;2022-12-18T05:15:27;30.97;;;18.17;;
10894;SDS011;5500;49.886;8.074;2022-12-18T05:17:55;39.80;;;20.13;;
10894;SDS011;5500;49.886;8.074;2022-12-18T05:20:23;40.23;;;19.30;;
10894;SDS011;5500;49.886;8.074;2022-12-18T05:22:52;35.97;;;19.13;;
10894;SDS011;5500;49.886;8.074;2022-12-18T05:25:21;33.33;;;19.77;;
10894;SDS011;5500;49.886;8.074;2022-12-18T05:27:49;39.17;;;21.60;;
10894;SDS011;5500;49.886;8.074;2022-12-18T05:30:17;38.53;;;19.93;;
10894;SDS011;5500;49.886;8.074;2022-12-18T05:32:44;42.93;;;21.27;;
10894;SDS011;5500;49.886;8.074;2022-12-18T05:35:12;41.27;;;20.37;;
10894;SDS011;5500;49.886;8.074;2022-12-18T05:37:40;36.83;;;19.20;;
10894;SDS011;5500;49.886;8.074;2022-12-18T05:40:10;39.63;;;20.17;;
10894;SDS011;5500;49.886;8.074;2022-12-18T05:42:39;40.43;;;19.57;;
10894;SDS011;5500;49.886;8.074;2022-12-18T05:45:07;41.57;;;21.57;;
10894;SDS011;5500;49.886;8.074;2022-12-18T05:47:35;39.43;;;20.03;;
10894;SDS011;5500;49.886;8.074;2022-12-18T05:50:03;39.30;;;20.60;;
10894;SDS011;5500;49.886;8.074;2022-12-18T05:52:31;36.87;;;20.03;;
10894;SDS011;5500;49.886;8.074;2022-12-18T05:54:59;41.70;;;21.73;;
10894;SDS011;5500;49.886;8.074;2022-12-18T05:57:28;31.90;;;18.70;;
10894;SDS011;5500;49.886;8.074;2022-12-18T05:59:56;37.17;;;19.90;;
10894;SDS011;5500;49.886;8.074;2022-12-18T06:02:23;35.20;;;18.67;;
10894;SDS011;5500;49.886;8.074;2022-12-18T06:04:51;36.97;;;18.67;;
10894;SDS011;5500;49.886;8.074;2022-12-18T06:07:18;33.80;;;18.80;;
10894;SDS011;5500;49.886;8.074;2022-12-18T06:09:46;38.20;;;18.37;;
10894;SDS011;5500;49.886;8.074;2022-12-18T06:12:14;35.37;;;19.20;;
10894;SDS011;5500;49.886;8.074;2022-12-18T06:14:43;33.13;;;19.20;;
10894;SDS011;5500;49.886;8.074;2022-12-18T06:17:10;32.67;;;19.60;;
10894;SDS011;5500;49.886;8.074;2022-12-18T06:19:38;37.60;;;20.27;;
10894;SDS011;5500;49.886;8.074;2022-12-18T06:22:06;38.07;;;19.90;;
10894;SDS011;5500;49.886;8.074;2022-12-18T06:24:33;38.10;;;20.70;;
10894;SDS011;5500;49.886;8.074;2022-12-18T06:27:01;33.43;;;19.47;;
10894;SDS011;5500;49.886;8.074;2022-12-18T06:29:29;37.47;;;21.57;;
10894;SDS011;5500;49.886;8.074;2022-12-18T06:31:57;41.47;;;22.37;;
10894;SDS011;5500;49.886;8.074;2022-12-18T06:34:25;39.10;;;23.03;;
10894;SDS011;5500;49.886;8.074;2022-12-18T06:36:53;46.67;;;25.63;;
10894;SDS011;5500;49.886;8.074;2022-12-18T06:39:21;70.87;;;39.40;;
10894;SDS011;5500;49.886;8.074;2022-12-18T06:41:48;67.23;;;33.83;;
10894;SDS011;5500;49.886;8.074;2022-12-18T06:44:16;66.17;;;33.27;;
10894;SDS011;5500;49.886;8.074;2022-12-18T06:46:44;52.10;;;25.73;;
10894;SDS011;5500;49.886;8.074;2022-12-18T06:49:13;56.53;;;30.20;;
10894;SDS011;5500;49.886;8.074;2022-12-18T06:51:42;45.43;;;24.80;;
10894;SDS011;5500;49.886;8.074;2022-12-18T06:54:09;54.00;;;27.20;;
10894;SDS011;5500;49.886;8.074;2022-12-18T06:56:37;49.17;;;25.37;;
10894;SDS011;5500;49.886;8.074;2022-12-18T06:59:05;64.00;;;33.97;;
10894;SDS011;5500;49.886;8.074;2022-12-18T07:01:32;66.67;;;35.70;;
10894;SDS011;5500;49.886;8.074;2022-12-18T07:04:00;38.67;;;21.80;;
10894;SDS011;5500;49.886;8.074;2022-12-18T07:06:29;40.70;;;21.97;;
10894;SDS011;5500;49.886;8.074;2022-12-18T07:08:57;46.83;;;22.33;;
10894;SDS011;5500;49.886;8.074;2022-12-18T07:11:24;38.40;;;22.73;;
10894;SDS011;5500;49.886;8.074;2022-12-18T07:13:52;41.60;;;20.60;;
10894;SDS011;5500;49.886;8.074;2022-12-18T07:16:20;42.43;;;21.70;;
10894;SDS011;5500;49.886;8.074;2022-12-18T07:18:51;39.43;;;23.93;;
10894;SDS011;5500;49.886;8.074;2022-12-18T07:21:19;38.10;;;23.33;;
10894;SDS011;5500;49.886;8.074;2022-12-18T07:23:48;32.57;;;20.07;;
10894;SDS011;5500;49.886;8.074;2022-12-18T07:26:16;38.47;;;22.20;;
10894;SDS011;5500;49.886;8.074;2022-12-18T07:28:45;37.37;;;21.13;;
10894;SDS011;5500;49.886;8.074;2022-12-18T07:31:14;39.10;;;23.27;;
10894;SDS011;5500;49.886;8.074;2022-12-18T07:33:42;35.67;;;21.03;;
10894;SDS011;5500;49.886;8.074;2022-12-18T07:36:10;40.57;;;22.73;;
10894;SDS011;5500;49.886;8.074;2022-12-18T07:38:38;34.67;;;20.77;;
10894;SDS011;5500;49.886;8.074;2022-12-18T07:41:08;48.43;;;26.77;;
10894;SDS011;5500;49.886;8.074;2022-12-18T07:43:37;40.47;;;23.77;;
10894;SDS011;5500;49.886;8.074;2022-12-18T07:46:07;39.63;;;21.97;;
10894;SDS011;5500;49.886;8.074;2022-12-18T07:48:38;34.97;;;18.53;;
10894;SDS011;5500;49.886;8.074;2022-12-18T07:51:06;30.53;;;18.67;;
10894;SDS011;5500;49.886;8.074;2022-12-18T07:53:35;34.27;;;20.13;;
10894;SDS011;5500;49.886;8.074;2022-12-18T07:56:05;35.47;;;19.90;;
10894;SDS011;5500;49.886;8.074;2022-12-18T07:58:55;33.67;;;20.03;;
10894;SDS011;5500;49.886;8.074;2022-12-18T08:01:23;35.73;;;20.73;;
10894;SDS011;5500;49.886;8.074;2022-12-18T08:03:51;36.50;;;20.37;;
10894;SDS011;5500;49.886;8.074;2022-12-18T08:06:19;35.93;;;19.90;;
10894;SDS011;5500;49.886;8.074;2022-12-18T08:08:50;36.93;;;18.77;;
10894;SDS011;5500;49.886;8.074;2022-12-18T08:11:18;33.10;;;19.03;;
10894;SDS011;5500;49.886;8.074;2022-12-18T08:13:46;33.43;;;18.90;;
10894;SDS011;5500;49.886;8.074;2022-12-18T08:16:16;35.20;;;18.43;;
10894;SDS011;5500;49.886;8.074;2022-12-18T08:18:46;32.67;;;19.20;;
10894;SDS011;5500;49.886;8.074;2022-12-18T08:21:15;36.33;;;19.53;;
10894;SDS011;5500;49.886;8.074;2022-12-18T08:23:46;37.90;;;20.20;;
10894;SDS011;5500;49.886;8.074;2022-12-18T08:26:16;35.57;;;20.93;;
10894;SDS011;5500;49.886;8.074;2022-12-18T08:28:44;39.13;;;23.07;;
10894;SDS011;5500;49.886;8.074;2022-12-18T08:31:13;31.53;;;20.73;;
10894;SDS011;5500;49.886;8.074;2022-12-18T08:33:42;34.00;;;20.03;;
10894;SDS011;5500;49.886;8.074;2022-12-18T08:36:10;31.10;;;19.47;;
10894;SDS011;5500;49.886;8.074;2022-12-18T08:38:38;32.77;;;18.87;;
10894;SDS011;5500;49.886;8.074;2022-12-18T08:41:07;37.57;;;21.47;;
10894;SDS011;5500;49.886;8.074;2022-12-18T08:43:36;39.73;;;20.10;;
10894;SDS011;5500;49.886;8.074;2022-12-18T08:46:22;37.40;;;21.80;;
10894;SDS011;5500;49.886;8.074;2022-12-18T08:48:53;31.47;;;19.43;;
10894;SDS011;5500;49.886;8.074;2022-12-18T08:51:21;31.87;;;18.83;;
10894;SDS011;5500;49.886;8.074;2022-12-18T08:53:49;37.13;;;21.53;;
10894;SDS011;5500;49.886;8.074;2022-12-18T08:56:17;34.23;;;21.03;;
10894;SDS011;5500;49.886;8.074;2022-12-18T08:58:45;34.37;;;20.53;;
10894;SDS011;5500;49.886;8.074;2022-12-18T09:01:13;35.50;;;20.17;;
10894;SDS011;5500;49.886;8.074;2022-12-18T09:03:41;37.50;;;21.37;;
10894;SDS011;5500;49.886;8.074;2022-12-18T09:06:12;37.87;;;21.40;;
10894;SDS011;5500;49.886;8.074;2022-12-18T09:08:41;31.10;;;18.60;;
10894;SDS011;5500;49.886;8.074;2022-12-18T09:11:11;33.67;;;19.53;;
10894;SDS011;5500;49.886;8.074;2022-12-18T09:13:41;35.50;;;20.03;;
10894;SDS011;5500;49.886;8.074;2022-12-18T09:16:09;39.83;;;23.67;;
10894;SDS011;5500;49.886;8.074;2022-12-18T09:18:36;34.43;;;20.53;;
10894;SDS011;5500;49.886;8.074;2022-12-18T09:21:08;35.60;;;21.73;;
10894;SDS011;5500;49.886;8.074;2022-12-18T09:23:38;41.00;;;21.77;;
10894;SDS011;5500;49.886;8.074;2022-12-18T09:26:06;34.53;;;22.07;;
10894;SDS011;5500;49.886;8.074;2022-12-18T09:28:34;37.73;;;21.50;;
10894;SDS011;5500;49.886;8.074;2022-12-18T09:31:05;37.10;;;21.43;;
10894;SDS011;5500;49.886;8.074;2022-12-18T09:33:35;40.67;;;21.07;;
10894;SDS011;5500;49.886;8.074;2022-12-18T09:36:04;37.30;;;21.27;;
10894;SDS011;5500;49.886;8.074;2022-12-18T09:38:35;37.10;;;21.90;;
10894;SDS011;5500;49.886;8.074;2022-12-18T09:41:04;37.87;;;22.17;;
10894;SDS011;5500;49.886;8.074;2022-12-18T09:43:34;37.50;;;22.50;;
10894;SDS011;5500;49.886;8.074;2022-12-18T09:46:05;36.17;;;22.50;;
10894;SDS011;5500;49.886;8.074;2022-12-18T09:48:35;38.60;;;22.60;;
10894;SDS011;5500;49.886;8.074;2022-12-18T09:51:05;38.40;;;24.77;;
10894;SDS011;5500;49.886;8.074;2022-12-18T09:53:41;36.40;;;21.77;;
10894;SDS011;5500;49.886;8.074;2022-12-18T09:56:12;34.60;;;21.57;;
10894;SDS011;5500;49.886;8.074;2022-12-18T09:58:44;43.07;;;22.63;;
10894;SDS011;5500;49.886;8.074;2022-12-18T10:01:16;38.83;;;21.97;;
10894;SDS011;5500;49.886;8.074;2022-12-18T10:03:46;32.53;;;21.83;;
10894;SDS011;5500;49.886;8.074;2022-12-18T10:06:18;38.13;;;22.60;;
10894;SDS011;5500;49.886;8.074;2022-12-18T10:08:52;36.37;;;20.67;;
10894;SDS011;5500;49.886;8.074;2022-12-18T10:11:32;35.20;;;21.87;;
10894;SDS011;5500;49.886;8.074;2022-12-18T10:14:08;33.37;;;21.03;;
10894;SDS011;5500;49.886;8.074;2022-12-18T10:16:42;34.03;;;21.43;;
10894;SDS011;5500;49.886;8.074;2022-12-18T10:19:23;33.73;;;20.53;;
10894;SDS011;5500;49.886;8.074;2022-12-18T10:22:01;35.80;;;20.73;;
10894;SDS011;5500;49.886;8.074;2022-12-18T10:24:48;30.87;;;19.80;;
10894;SDS011;5500;49.886;8.074;2022-12-18T10:27:22;33.23;;;21.10;;
10894;SDS011;5500;49.886;8.074;2022-12-18T10:29:51;31.87;;;20.93;;
10894;SDS011;5500;49.886;8.074;2022-12-18T10:32:20;35.40;;;20.77;;
10894;SDS011;5500;49.886;8.074;2022-12-18T10:34:52;39.63;;;22.80;;
10894;SDS011;5500;49.886;8.074;2022-12-18T10:37:27;35.83;;;21.30;;
10894;SDS011;5500;49.886;8.074;2022-12-18T10:40:07;33.20;;;20.90;;
10894;SDS011;5500;49.886;8.074;2022-12-18T10:42:45;34.77;;;20.80;;
10894;SDS011;5500;49.886;8.074;2022-12-18T10:45:14;33.13;;;21.13;;
10894;SDS011;5500;49.886;8.074;2022-12-18T10:47:43;36.03;;;21.63;;
10894;SDS011;5500;49.886;8.074;2022-12-18T10:50:19;33.77;;;20.93;;
10894;SDS011;5500;49.886;8.074;2022-12-18T10:52:57;36.03;;;21.53;;
10894;SDS011;5500;49.886;8.074;2022-12-18T10:55:33;35.00;;;20.97;;
10894;SDS011;5500;49.886;8.074;2022-12-18T10:58:13;32.10;;;20.87;;
10894;SDS011;5500;49.886;8.074;2022-12-18T11:01:01;31.93;;;21.07;;
10894;SDS011;5500;49.886;8.074;2022-12-18T11:03:35;36.77;;;21.57;;
10894;SDS011;5500;49.886;8.074;2022-12-18T11:06:05;35.50;;;21.57;;
10894;SDS011;5500;49.886;8.074;2022-12-18T11:08:34;33.80;;;21.50;;
10894;SDS011;5500;49.886;8.074;2022-12-18T11:11:07;33.63;;;22.17;;
10894;SDS011;5500;49.886;8.074;2022-12-18T11:13:48;34.50;;;22.33;;
10894;SDS011;5500;49.886;8.074;2022-12-18T11:16:23;34.20;;;22.77;;
10894;SDS011;5500;49.886;8.074;2022-12-18T11:18:51;33.10;;;21.57;;
10894;SDS011;5500;49.886;8.074;2022-12-18T11:21:19;34.87;;;22.37;;
10894;SDS011;5500;49.886;8.074;2022-12-18T11:23:49;32.33;;;20.93;;
10894;SDS011;5500;49.886;8.074;2022-12-18T11:26:18;32.47;;;20.80;;
10894;SDS011;5500;49.886;8.074;2022-12-18T11:28:49;31.93;;;21.50;;
10894;SDS011;5500;49.886;8.074;2022-12-18T11:31:23;33.30;;;21.60;;
10894;SDS011;5500;49.886;8.074;2022-12-18T11:33:59;32.80;;;20.93;;
10894;SDS011;5500;49.886;8.074;2022-12-18T11:36:48;32.50;;;21.23;;
10894;SDS011;5500;49.886;8.074;2022-12-18T11:39:17;30.57;;;20.73;;
10894;SDS011;5500;49.886;8.074;2022-12-18T11:41:50;33.03;;;20.47;;
10894;SDS011;5500;49.886;8.074;2022-12-18T11:44:38;32.57;;;19.60;;
10894;SDS011;5500;49.886;8.074;2022-12-18T11:47:15;37.67;;;21.93;;
10894;SDS011;5500;49.886;8.074;2022-12-18T11:49:48;33.63;;;20.90;;
10894;SDS011;5500;49.886;8.074;2022-12-18T11:52:18;37.70;;;22.43;;
10894;SDS011;5500;49.886;8.074;2022-12-18T11:54:50;35.43;;;22.50;;
10894;SDS011;5500;49.886;8.074;2022-12-18T11:57:25;33.20;;;21.50;;
10894;SDS011;5500;49.886;8.074;2022-12-18T12:00:02;34.03;;;21.20;;
10894;SDS011;5500;49.886;8.074;2022-12-18T12:02:39;35.30;;;22.13;;
10894;SDS011;5500;49.886;8.074;2022-12-18T12:05:20;37.50;;;23.10;;
10894;SDS011;5500;49.886;8.074;2022-12-18T12:07:57;45.07;;;27.63;;
10894;SDS011;5500;49.886;8.074;2022-12-18T12:10:32;36.80;;;23.33;;
10894;SDS011;5500;49.886;8.074;2022-12-18T12:13:18;40.70;;;24.27;;
10894;SDS011;5500;49.886;8.074;2022-12-18T12:15:55;37.60;;;22.70;;
10894;SDS011;5500;49.886;8.074;2022-12-18T12:18:32;34.73;;;21.70;;
10894;SDS011;5500;49.886;8.074;2022-12-18T12:21:11;34.27;;;21.63;;
10894;SDS011;5500;49.886;8.074;2022-12-18T12:23:42;33.57;;;22.30;;
10894;SDS011;5500;49.886;8.074;2022-12-18T12:26:17;39.33;;;23.73;;
10894;SDS011;5500;49.886;8.074;2022-12-18T12:28:52;40.23;;;23.27;;
10894;SDS011;5500;49.886;8.074;2022-12-18T12:31:31;37.63;;;24.00;;
10894;SDS011;5500;49.886;8.074;2022-12-18T12:34:08;40.23;;;22.50;;
10894;SDS011;5500;49.886;8.074;2022-12-18T12:36:46;44.13;;;24.90;;
10894;SDS011;5500;49.886;8.074;2022-12-18T12:39:22;33.20;;;21.30;;
10894;SDS011;5500;49.886;8.074;2022-12-18T12:41:52;42.47;;;24.23;;
10894;SDS011;5500;49.886;8.074;2022-12-18T12:44:40;40.80;;;24.07;;
10894;SDS011;5500;49.886;8.074;2022-12-18T12:47:14;40.77;;;25.13;;
10894;SDS011;5500;49.886;8.074;2022-12-18T12:49:43;40.27;;;24.83;;
10894;SDS011;5500;49.886;8.074;2022-12-18T12:52:18;43.40;;;25.00;;
10894;SDS011;5500;49.886;8.074;2022-12-18T12:54:55;39.77;;;23.67;;
10894;SDS011;5500;49.886;8.074;2022-12-18T12:57:26;39.40;;;23.93;;
10894;SDS011;5500;49.886;8.074;2022-12-18T13:00:00;40.07;;;24.43;;
10894;SDS011;5500;49.886;8.074;2022-12-18T13:02:34;38.80;;;22.40;;
10894;SDS011;5500;49.886;8.074;2022-12-18T13:05:06;41.57;;;23.60;;
10894;SDS011;5500;49.886;8.074;2022-12-18T13:07:41;41.43;;;23.70;;
10894;SDS011;5500;49.886;8.074;2022-12-18T13:13:01;39.37;;;22.40;;
10894;SDS011;5500;49.886;8.074;2022-12-18T13:15:32;40.57;;;24.03;;
10894;SDS011;5500;49.886;8.074;2022-12-18T13:18:09;38.90;;;21.60;;
10894;SDS011;5500;49.886;8.074;2022-12-18T13:20:40;41.23;;;25.17;;
10894;SDS011;5500;49.886;8.074;2022-12-18T13:23:19;44.97;;;25.10;;
10894;SDS011;5500;49.886;8.074;2022-12-18T13:25:53;42.33;;;24.83;;
10894;SDS011;5500;49.886;8.074;2022-12-18T13:28:22;39.83;;;24.47;;
10894;SDS011;5500;49.886;8.074;2022-12-18T13:30:54;39.47;;;24.80;;
10894;SDS011;5500;49.886;8.074;2022-12-18T13:36:32;45.07;;;26.37;;
10894;SDS011;5500;49.886;8.074;2022-12-18T13:39:22;46.43;;;27.67;;
10894;SDS011;5500;49.886;8.074;2022-12-18T13:45:35;46.77;;;24.63;;
10894;SDS011;5500;49.886;8.074;2022-12-18T13:48:13;42.83;;;25.30;;
10894;SDS011;5500;49.886;8.074;2022-12-18T13:51:02;46.73;;;26.20;;
10894;SDS011;5500;49.886;8.074;2022-12-18T13:53:36;46.53;;;26.60;;
10894;SDS011;5500;49.886;8.074;2022-12-18T13:56:09;44.73;;;26.70;;
10894;SDS011;5500;49.886;8.074;2022-12-18T13:58:46;45.43;;;25.30;;
10894;SDS011;5500;49.886;8.074;2022-12-18T14:01:21;39.90;;;24.17;;
10894;SDS011;5500;49.886;8.074;2022-12-18T14:06:38;44.83;;;23.30;;
10894;SDS011;5500;49.886;8.074;2022-12-18T14:09:10;43.53;;;25.70;;
10894;SDS011;5500;49.886;8.074;2022-12-18T14:11:47;41.13;;;24.33;;
10894;SDS011;5500;49.886;8.074;2022-12-18T14:14:16;43.63;;;26.23;;
10894;SDS011;5500;49.886;8.074;2022-12-18T14:16:49;41.97;;;25.33;;
10894;SDS011;5500;49.886;8.074;2022-12-18T14:19:21;39.47;;;25.23;;
10894;SDS011;5500;49.886;8.074;2022-12-18T14:21:50;41.47;;;25.03;;
10894;SDS011;5500;49.886;8.074;2022-12-18T14:24:19;44.20;;;25.30;;
10894;SDS011;5500;49.886;8.074;2022-12-18T14:26:49;43.57;;;25.03;;
10894;SDS011;5500;49.886;8.074;2022-12-18T14:29:19;42.97;;;25.10;;
10894;SDS011;5500;49.886;8.074;2022-12-18T14:32:06;41.63;;;24.70;;
10894;SDS011;5500;49.886;8.074;2022-12-18T14:34:45;41.27;;;24.53;;
10894;SDS011;5500;49.886;8.074;2022-12-18T14:37:15;39.17;;;24.47;;
10894;SDS011;5500;49.886;8.074;2022-12-18T14:39:56;41.20;;;25.13;;
10894;SDS011;5500;49.886;8.074;2022-12-18T14:42:26;42.03;;;24.47;;
10894;SDS011;5500;49.886;8.074;2022-12-18T14:48:08;47.70;;;27.80;;
10894;SDS011;5500;49.886;8.074;2022-12-18T14:50:42;51.77;;;30.30;;
10894;SDS011;5500;49.886;8.074;2022-12-18T14:53:18;46.07;;;26.13;;
10894;SDS011;5500;49.886;8.074;2022-12-18T14:55:48;44.20;;;25.90;;
10894;SDS011;5500;49.886;8.074;2022-12-18T14:58:16;48.73;;;26.63;;
10894;SDS011;5500;49.886;8.074;2022-12-18T15:00:46;41.60;;;25.33;;
10894;SDS011;5500;49.886;8.074;2022-12-18T15:03:15;42.57;;;25.50;;
10894;SDS011;5500;49.886;8.074;2022-12-18T15:05:47;45.13;;;25.63;;
10894;SDS011;5500;49.886;8.074;2022-12-18T15:08:27;41.93;;;24.20;;
10894;SDS011;5500;49.886;8.074;2022-12-18T15:10:56;46.87;;;25.20;;
10894;SDS011;5500;49.886;8.074;2022-12-18T15:13:24;45.37;;;25.63;;
10894;SDS011;5500;49.886;8.074;2022-12-18T15:15:52;43.43;;;24.27;;